Time;durP1;ratioP1;P1;durP2;ratioP2;P2;SDS_P1;SDS_P2;PMS_P1;PMS_P2;Temp;Humidity;BMP_temperature;BMP_pressure;BME280_temperature;BME280_humidity;BME280_pressure;Samples;Min_cycle;Max_cycle;Signal;HPM_P1;HPM_P2
2022/10/26 00:00:04;;;;;;;24.67;15.10;;;;;;;18.55;78.74;101690.31;5000735;28;20540;-80
2022/10/26 00:02:31;;;;;;;31.33;16.73;;;;;;;18.76;78.94;101724.88;5000573;28;20139;-80
2022/10/26 00:04:58;;;;;;;31.17;15.27;;;;;;;18.89;79.03;101759.41;5004743;28;20053;-78
2022/10/26 00:07:28;;;;;;;26.17;15.57;;;;;;;18.82;79.45;101744.91;5034563;28;20060;-80
2022/10/26 00:09:55;;;;;;;27.98;15.50;;;;;;;18.91;78.65;101751.13;5015355;28;20052;-79
2022/10/26 00:12:22;;;;;;;27.52;15.15;;;;;;;18.77;78.97;101731.09;5018594;28;20045;-82
2022/10/26 00:14:49;;;;;;;30.48;15.90;;;;;;;18.10;78.83;101626.09;5017204;28;20605;-78
2022/10/26 00:17:18;;;;;;;27.88;16.67;;;;;;;18.82;78.73;101742.22;5018911;28;20467;-81
2022/10/26 00:19:50;;;;;;;26.73;15.80;;;;;;;18.68;78.83;101727.50;5014407;28;20095;-80
2022/10/26 00:22:17;;;;;;;36.33;16.30;;;;;;;18.77;78.70;101736.47;5015773;28;20060;-80
2022/10/26 00:24:46;;;;;;;29.27;15.75;;;;;;;18.38;78.33;101685.03;5000507;28;20059;-82
2022/10/26 00:27:16;;;;;;;28.55;15.23;;;;;;;18.81;78.63;101770.09;4998340;28;20049;-83
2022/10/26 00:29:45;;;;;;;32.90;15.35;;;;;;;18.05;78.67;101653.44;5000759;28;20057;-81
2022/10/26 00:32:11;;;;;;;25.48;15.43;;;;;;;18.76;78.68;101777.81;4998623;28;20600;-82
2022/10/26 00:34:46;;;;;;;34.10;15.48;;;;;;;18.72;78.67;101771.91;5016982;28;20132;-79
2022/10/26 00:37:19;;;;;;;31.38;15.15;;;;;;;18.70;78.62;101757.78;5003425;28;20054;-81
2022/10/26 00:39:46;;;;;;;30.42;15.30;;;;;;;18.70;78.66;101763.16;5021298;28;20493;-83
2022/10/26 00:42:18;;;;;;;28.55;14.07;;;;;;;18.56;78.43;101744.94;5004654;28;20143;-82
2022/10/26 00:44:47;;;;;;;27.77;14.55;;;;;;;18.67;78.41;101774.25;5023770;28;20290;-84
2022/10/26 00:47:14;;;;;;;25.92;15.18;;;;;;;18.50;78.34;101757.19;5005768;28;20187;-84
2022/10/26 00:49:45;;;;;;;34.35;16.75;;;;;;;18.47;78.81;101756.63;5004326;28;20088;-85
2022/10/26 00:52:14;;;;;;;28.10;15.68;;;;;;;18.57;79.08;101785.13;5000922;28;20041;-84
2022/10/26 00:54:42;;;;;;;29.27;15.45;;;;;;;18.40;79.15;101761.84;5005115;28;20572;-84
2022/10/26 00:57:14;;;;;;;32.58;15.07;;;;;;;17.76;79.18;101658.28;5020620;28;20505;-83
2022/10/26 00:59:43;;;;;;;25.92;14.10;;;;;;;18.56;78.69;101782.56;5002188;28;20057;-84
2022/10/26 01:02:12;;;;;;;26.48;14.90;;;;;;;18.24;78.93;101724.94;5002940;28;20489;-80
2022/10/26 01:04:39;;;;;;;25.30;14.95;;;;;;;18.58;78.78;101776.03;5000638;28;20140;-81
2022/10/26 01:07:11;;;;;;;28.25;14.10;;;;;;;18.60;78.31;101778.56;5003678;28;20055;-81
2022/10/26 01:09:39;;;;;;;29.85;15.30;;;;;;;18.55;78.48;101765.59;5003581;28;20063;-83
2022/10/26 01:12:12;;;;;;;21.60;14.25;;;;;;;18.69;77.98;101779.44;4998747;28;20142;-83
2022/10/26 01:14:39;;;;;;;28.33;15.05;;;;;;;18.32;78.07;101724.13;4999918;28;20164;-82
2022/10/26 01:17:25;;;;;;;25.23;14.52;;;;;;;18.61;78.01;101766.81;5001192;28;20403;-84
2022/10/26 01:20:19;;;;;;;27.33;14.05;;;;;;;18.48;77.39;101747.59;4980664;28;20066;-83
2022/10/26 01:23:04;;;;;;;28.92;14.27;;;;;;;18.36;77.50;101733.56;4982135;28;20135;-83
2022/10/26 01:26:05;;;;;;;34.28;15.75;;;;;;;17.79;77.89;101655.28;4984609;28;20156;-81
2022/10/26 01:28:53;;;;;;;24.50;14.52;;;;;;;18.37;78.29;101754.06;4987194;28;20189;-84
2022/10/26 01:31:39;;;;;;;23.25;13.45;;;;;;;18.35;78.68;101753.41;5001170;28;20068;-83
2022/10/26 01:34:27;;;;;;;23.38;13.73;;;;;;;17.69;78.61;101650.88;5001107;28;20052;-81
2022/10/26 01:37:01;;;;;;;33.55;15.57;;;;;;;18.29;78.31;101738.75;4998902;28;20532;-83
2022/10/26 01:39:44;;;;;;;25.75;14.77;;;;;;;18.28;78.29;101736.22;4998073;28;20163;-83
2022/10/26 01:42:14;;;;;;;21.90;14.00;;;;;;;18.27;78.46;101731.84;5017497;28;20067;-82
2022/10/26 01:44:47;;;;;;;26.63;14.07;;;;;;;18.27;77.76;101713.88;5000295;28;20370;-82
2022/10/26 01:47:17;;;;;;;26.95;13.60;;;;;;;18.08;78.10;101696.16;5018173;28;20051;-81
2022/10/26 01:49:49;;;;;;;34.97;14.60;;;;;;;18.28;78.33;101720.94;5017040;28;20671;-81
2022/10/26 01:52:18;;;;;;;30.40;14.63;;;;;;;18.23;77.56;101700.91;5001135;28;20049;-83
2022/10/26 01:54:45;;;;;;;29.30;15.20;;;;;;;18.33;77.53;101718.63;4998574;28;20061;-81
2022/10/26 01:57:16;;;;;;;38.28;15.35;;;;;;;18.36;77.43;101723.66;5000146;28;20049;-81
2022/10/26 01:59:53;;;;;;;29.35;15.73;;;;;;;18.25;77.46;101706.97;4998287;28;20045;-82
2022/10/26 02:02:31;;;;;;;32.47;15.70;;;;;;;18.54;77.06;101745.09;5018921;28;20059;-80
2022/10/26 02:05:19;;;;;;;29.13;14.30;;;;;;;18.35;77.38;101729.22;5001040;28;20141;-81
2022/10/26 02:08:04;;;;;;;31.52;15.18;;;;;;;18.40;77.05;101737.66;5001417;28;20469;-82
2022/10/26 02:10:45;;;;;;;28.52;15.43;;;;;;;18.05;77.17;101693.75;5020145;28;20053;-82
2022/10/26 02:13:15;;;;;;;23.50;14.77;;;;;;;18.25;76.64;101715.88;5002095;28;20521;-81
2022/10/26 02:15:53;;;;;;;29.38;14.45;;;;;;;17.73;77.15;101633.44;4998244;28;20052;-81
2022/10/26 02:18:42;;;;;;;25.02;13.65;;;;;;;18.33;76.88;101736.59;4999327;28;20052;-82
2022/10/26 02:21:14;;;;;;;26.55;15.27;;;;;;;18.14;76.80;101694.66;4995453;28;20049;-82
2022/10/26 02:23:47;;;;;;;25.65;14.38;;;;;;;18.08;76.56;101693.47;4998813;28;20053;-82
2022/10/26 02:26:23;;;;;;;31.05;13.88;;;;;;;18.19;76.76;101726.44;4998538;28;20049;-83
2022/10/26 02:28:54;;;;;;;28.38;13.20;;;;;;;18.12;76.35;101724.38;4998089;28;20179;-82
2022/10/26 02:31:24;;;;;;;23.55;14.00;;;;;;;17.92;76.23;101671.88;4995945;28;20528;-80
2022/10/26 02:33:53;;;;;;;26.25;14.35;;;;;;;18.13;76.40;101701.00;5001331;28;20057;-81
2022/10/26 02:36:27;;;;;;;23.23;13.77;;;;;;;18.05;76.06;101699.13;4997493;28;20045;-81
2022/10/26 02:38:56;;;;;;;26.52;13.98;;;;;;;18.24;75.55;101711.50;5015985;28;20048;-81
2022/10/26 02:41:28;;;;;;;21.75;12.48;;;;;;;17.79;75.39;101639.16;4999820;28;20218;-82
2022/10/26 02:44:25;;;;;;;26.65;13.43;;;;;;;18.02;75.63;101699.44;4998982;28;20584;-82
2022/10/26 02:46:54;;;;;;;26.65;13.52;;;;;;;17.72;75.84;101661.28;5016637;28;20060;-80
2022/10/26 02:49:23;;;;;;;30.60;14.57;;;;;;;17.38;76.01;101612.03;5014897;28;20052;-83
2022/10/26 02:52:29;;;;;;;27.42;12.77;;;;;;;17.37;76.32;101629.16;4999290;28;20051;-81
2022/10/26 02:55:17;;;;;;;23.48;12.27;;;;;;;18.04;75.61;101712.75;4994339;28;20648;-81
2022/10/26 02:57:53;;;;;;;22.08;12.98;;;;;;;17.91;75.55;101697.88;5003096;28;20106;-82
2022/10/26 03:00:20;;;;;;;31.00;13.43;;;;;;;17.88;75.75;101691.97;5002677;28;20060;-82
2022/10/26 03:02:56;;;;;;;23.90;12.57;;;;;;;18.03;75.50;101719.94;5000438;28;20285;-80
2022/10/26 03:05:28;;;;;;;22.33;11.50;;;;;;;17.86;75.17;101693.97;5000153;28;20570;-80
2022/10/26 03:07:55;;;;;;;21.83;11.32;;;;;;;17.83;75.29;101688.91;4997993;28;20505;-80
2022/10/26 03:10:23;;;;;;;21.02;12.27;;;;;;;17.55;75.56;101654.13;4991110;28;20061;-82
2022/10/26 03:12:50;;;;;;;22.63;12.27;;;;;;;17.33;75.54;101627.75;4998702;28;20130;-83
2022/10/26 03:15:18;;;;;;;22.52;11.95;;;;;;;17.79;76.09;101714.38;4997104;28;20085;-82
2022/10/26 03:17:45;;;;;;;22.35;11.13;;;;;;;17.62;76.16;101671.31;4981917;28;20061;-83
2022/10/26 03:20:12;;;;;;;24.45;13.00;;;;;;;17.83;75.93;101711.25;4978195;28;20574;-82
2022/10/26 03:22:38;;;;;;;18.27;11.98;;;;;;;17.70;75.85;101690.16;4979560;28;20254;-83
2022/10/26 03:25:05;;;;;;;25.27;12.00;;;;;;;17.89;75.69;101701.72;4979264;28;20425;-83
2022/10/26 03:27:33;;;;;;;22.95;12.05;;;;;;;17.25;75.26;101593.66;4977684;28;20049;-82
2022/10/26 03:30:05;;;;;;;29.25;12.65;;;;;;;18.03;74.94;101711.88;4993395;28;20126;-82
2022/10/26 03:32:32;;;;;;;20.75;12.25;;;;;;;17.91;75.27;101702.38;4998839;28;20596;-81
2022/10/26 03:35:04;;;;;;;25.88;12.25;;;;;;;17.69;75.11;101672.34;5000251;28;20049;-83
2022/10/26 03:37:31;;;;;;;20.88;10.85;;;;;;;17.70;75.10;101671.34;5002827;28;20044;-82
2022/10/26 03:39:58;;;;;;;20.95;11.00;;;;;;;17.59;75.27;101660.00;5000193;28;20053;-81
2022/10/26 03:42:24;;;;;;;26.98;12.00;;;;;;;17.63;75.54;101672.97;5018540;28;20049;-82
2022/10/26 03:44:51;;;;;;;24.55;11.80;;;;;;;17.51;75.55;101652.75;5017032;28;20053;-83
2022/10/26 03:47:19;;;;;;;20.92;12.32;;;;;;;17.76;75.91;101709.31;5016121;28;20047;-84
2022/10/26 03:49:45;;;;;;;22.40;11.77;;;;;;;17.71;76.61;101707.09;5010034;28;20283;-82
2022/10/26 03:52:12;;;;;;;20.05;11.77;;;;;;;17.68;76.65;101708.25;5017848;28;20064;-82
2022/10/26 03:54:42;;;;;;;23.90;12.18;;;;;;;17.61;76.64;101715.25;5015581;28;20056;-83
2022/10/26 03:57:09;;;;;;;18.75;12.13;;;;;;;17.59;76.38;101719.09;5017913;28;20045;-82
2022/10/26 03:59:36;;;;;;;23.75;11.90;;;;;;;17.48;76.87;101706.75;5006604;28;20053;-83
2022/10/26 04:02:05;;;;;;;23.17;11.90;;;;;;;17.61;76.78;101714.41;4999613;28;20115;-82
2022/10/26 04:04:31;;;;;;;21.90;11.27;;;;;;;17.65;76.40;101716.63;4996059;28;20065;-82
2022/10/26 04:06:58;;;;;;;15.80;11.23;;;;;;;17.35;76.56;101671.41;4999928;28;20459;-84
2022/10/26 04:09:28;;;;;;;22.33;12.07;;;;;;;17.64;76.76;101728.34;5018842;28;20092;-83
2022/10/26 04:11:55;;;;;;;22.35;12.18;;;;;;;17.00;76.57;101640.91;4999423;28;20137;-81
2022/10/26 04:14:28;;;;;;;22.75;11.80;;;;;;;17.46;76.39;101708.75;4985422;28;21120;-82
2022/10/26 04:16:55;;;;;;;20.38;11.43;;;;;;;17.47;76.53;101694.31;4982772;28;20148;-81
2022/10/26 04:19:22;;;;;;;27.48;12.32;;;;;;;17.66;76.64;101742.47;4983682;28;20524;-80
2022/10/26 04:21:50;;;;;;;21.17;11.10;;;;;;;17.61;76.50;101720.63;4982329;28;20050;-81
2022/10/26 04:24:18;;;;;;;20.60;11.85;;;;;;;17.65;76.06;101719.31;4983947;28;20163;-82
2022/10/26 04:26:45;;;;;;;22.95;10.85;;;;;;;17.50;75.38;101689.50;4983439;28;20128;-81
2022/10/26 04:29:21;;;;;;;22.80;11.48;;;;;;;17.34;74.40;101664.34;4995572;28;20407;-82
2022/10/26 04:31:48;;;;;;;20.80;11.18;;;;;;;17.69;74.42;101715.31;4983492;28;20456;-82
2022/10/26 04:34:15;;;;;;;24.63;13.13;;;;;;;17.40;74.58;101699.44;4998067;28;20068;-83
2022/10/26 04:36:41;;;;;;;26.85;12.88;;;;;;;17.27;74.86;101688.28;5002222;28;20514;-83
2022/10/26 04:39:11;;;;;;;27.23;12.93;;;;;;;17.30;75.05;101687.97;4999190;28;20479;-82
2022/10/26 04:41:42;;;;;;;20.63;12.10;;;;;;;17.02;75.30;101652.34;5002737;28;20071;-81
2022/10/26 04:44:09;;;;;;;21.50;13.30;;;;;;;16.85;75.59;101630.72;5004309;28;20817;-81
2022/10/26 04:46:35;;;;;;;26.48;12.45;;;;;;;17.27;75.61;101702.53;5002302;28;20053;-81
2022/10/26 04:49:02;;;;;;;22.50;12.30;;;;;;;17.20;75.62;101711.34;5006414;28;20052;-81
2022/10/26 04:51:30;;;;;;;24.40;12.68;;;;;;;16.95;76.21;101678.91;5019559;28;20530;-80
2022/10/26 04:54:02;;;;;;;21.15;13.02;;;;;;;16.59;76.27;101635.94;5004152;28;20045;-80
2022/10/26 04:56:47;;;;;;;25.85;12.88;;;;;;;15.65;76.02;101477.25;4989397;28;20080;-81
2022/10/26 04:59:14;;;;;;;24.23;12.35;;;;;;;16.48;76.85;101619.22;4999239;28;20206;-82
2022/10/26 05:01:40;;;;;;;21.90;13.10;;;;;;;17.01;76.80;101715.00;5002775;28;20495;-81
2022/10/26 05:04:07;;;;;;;26.50;13.50;;;;;;;16.53;76.94;101633.00;5018181;28;20244;-81
2022/10/26 05:06:34;;;;;;;29.17;15.23;;;;;;;16.87;76.52;101703.81;5004523;28;20049;-80
2022/10/26 05:09:01;;;;;;;30.35;12.52;;;;;;;17.00;76.50;101719.53;5022569;28;20045;-81
2022/10/26 05:11:28;;;;;;;28.02;14.40;;;;;;;16.47;76.89;101647.84;5023947;28;20556;-81
2022/10/26 05:13:54;;;;;;;30.02;13.18;;;;;;;16.91;77.22;101720.44;5003686;28;20139;-83
2022/10/26 05:16:22;;;;;;;23.15;12.65;;;;;;;16.52;77.24;101647.41;5020342;28;20063;-83
2022/10/26 05:18:48;;;;;;;32.10;12.82;;;;;;;16.75;77.42;101688.91;5020858;28;20541;-82
2022/10/26 05:21:18;;;;;;;24.30;12.95;;;;;;;16.53;77.57;101673.22;5003189;28;20076;-82
2022/10/26 05:23:51;;;;;;;19.60;12.68;;;;;;;16.80;77.70;101715.31;5003494;28;20378;-82
2022/10/26 05:26:21;;;;;;;25.02;13.38;;;;;;;16.77;77.26;101694.97;5010399;28;20037;-81
2022/10/26 05:28:48;;;;;;;22.88;12.48;;;;;;;16.47;77.05;101631.78;5027694;28;20441;-78
2022/10/26 05:31:15;;;;;;;27.00;12.57;;;;;;;16.72;77.32;101672.25;5020487;28;20495;-81
2022/10/26 05:33:42;;;;;;;26.67;13.43;;;;;;;16.65;77.34;101663.97;5021355;28;20048;-79
2022/10/26 05:36:11;;;;;;;23.38;13.85;;;;;;;17.03;76.96;101735.31;5011843;28;20130;-80
2022/10/26 05:38:37;;;;;;;25.70;14.13;;;;;;;16.85;77.13;101700.44;5004242;28;20532;-82
2022/10/26 05:41:14;;;;;;;22.15;12.68;;;;;;;17.04;76.97;101717.41;4978754;28;21103;-81
2022/10/26 05:43:52;;;;;;;25.15;13.18;;;;;;;16.97;76.95;101710.97;4980679;28;20567;-82
2022/10/26 05:46:23;;;;;;;31.10;13.40;;;;;;;17.10;76.62;101730.22;4972670;28;20203;-81
2022/10/26 05:48:52;;;;;;;26.73;12.63;;;;;;;16.74;76.25;101665.75;4961372;28;20076;-83
2022/10/26 05:51:32;;;;;;;36.05;13.60;;;;;;;16.97;76.09;101708.28;4979652;28;20566;-80
2022/10/26 05:54:04;;;;;;;26.55;14.02;;;;;;;16.88;76.47;101697.44;4994964;28;20384;-81
2022/10/26 05:57:21;;;;;;;20.95;13.18;;;;;;;17.24;76.53;101761.06;5015594;28;20511;-82
2022/10/26 05:59:48;;;;;;;28.55;14.02;;;;;;;16.94;76.09;101704.03;4984153;28;20055;-83
2022/10/26 06:02:38;;;;;;;25.75;12.93;;;;;;;17.34;75.79;101763.66;5021827;28;20420;-82
2022/10/26 06:05:10;;;;;;;26.08;12.77;;;;;;;17.25;75.01;101744.78;5004187;28;20049;-82
2022/10/26 06:07:37;;;;;;;27.85;13.15;;;;;;;17.25;75.47;101733.19;5004063;28;20098;-82
2022/10/26 06:10:04;;;;;;;26.30;13.45;;;;;;;17.07;74.77;101703.69;5002944;28;20140;-82
2022/10/26 06:12:33;;;;;;;32.95;14.20;;;;;;;17.35;75.18;101749.22;4990191;28;20045;-83
2022/10/26 06:15:00;;;;;;;29.75;13.52;;;;;;;17.14;74.91;101725.41;5020388;28;20408;-81
2022/10/26 06:17:29;;;;;;;32.15;13.43;;;;;;;17.43;75.12;101754.69;5004804;28;20076;-81
2022/10/26 06:20:15;;;;;;;31.45;14.75;;;;;;;17.45;74.57;101771.47;5003324;28;20485;-81
2022/10/26 06:22:52;;;;;;;32.03;14.65;;;;;;;17.38;74.21;101754.28;5007387;28;20048;-80
2022/10/26 06:25:45;;;;;;;25.45;13.05;;;;;;;17.36;74.57;101767.88;5003334;28;20172;-80
2022/10/26 06:28:18;;;;;;;;;;;;;;;17.37;75.17;101780.28;5002833;28;20836;-80
2022/10/26 06:30:45;;;;;;;33.25;15.35;;;;;;;17.38;75.08;101775.75;5020451;28;19924;-81
2022/10/26 06:33:15;;;;;;;34.30;17.33;;;;;;;17.45;74.73;101788.44;5018287;28;20549;-81
2022/10/26 06:36:14;;;;;;;31.23;16.17;;;;;;;17.17;74.16;101733.97;5018556;28;20045;-82
2022/10/26 06:38:43;;;;;;;37.28;18.15;;;;;;;17.45;74.18;101771.47;5000840;28;20045;-81
2022/10/26 06:41:15;;;;;;;35.45;17.17;;;;;;;17.33;74.12;101756.59;5001886;28;20162;-82
2022/10/26 06:43:42;;;;;;;;;;;;;;;17.47;74.39;101802.53;5019876;28;20205;-82
2022/10/26 06:46:36;;;;;;;32.80;16.98;;;;;;;17.13;74.13;101734.41;5017488;28;19931;-82
2022/10/26 06:49:25;;;;;;;30.08;14.25;;;;;;;17.50;74.85;101810.31;5001685;28;20068;-82
2022/10/26 06:52:02;;;;;;;28.90;14.93;;;;;;;17.18;75.18;101748.22;5016913;28;20077;-82
2022/10/26 06:54:50;;;;;;;28.70;15.32;;;;;;;17.42;75.21;101793.25;5018194;28;20495;-81
2022/10/26 06:57:23;;;;;;;26.13;15.02;;;;;;;17.56;75.42;101800.78;4991953;28;20053;-79
2022/10/26 07:00:03;;;;;;;29.90;14.77;;;;;;;17.64;75.71;101811.59;5001662;28;20040;-80
2022/10/26 07:02:31;;;;;;;36.95;15.02;;;;;;;17.70;75.20;101824.41;5018301;28;20065;-81
2022/10/26 07:04:58;;;;;;;30.17;14.70;;;;;;;17.75;75.46;101823.97;5030139;28;20920;-82
2022/10/26 07:07:29;;;;;;;31.20;14.43;;;;;;;17.59;75.11;101781.69;5001229;28;20053;-80
2022/10/26 07:09:56;;;;;;;30.65;15.18;;;;;;;17.88;75.05;101812.84;5019648;28;20405;-78
2022/10/26 07:12:23;;;;;;;34.55;13.80;;;;;;;17.87;74.95;101813.88;5002858;28;20603;-80
2022/10/26 07:14:52;;;;;;;27.75;14.70;;;;;;;17.92;75.32;101817.75;5001406;28;20464;-78
2022/10/26 07:17:19;;;;;;;25.63;14.38;;;;;;;18.01;75.41;101825.88;5001663;28;20303;-80
2022/10/26 07:19:50;;;;;;;31.30;15.10;;;;;;;18.02;75.39;101817.69;5019050;28;20045;-81
2022/10/26 07:22:19;;;;;;;32.17;15.05;;;;;;;17.96;74.75;101799.47;5003568;28;20152;-81
2022/10/26 07:24:50;;;;;;;28.42;15.30;;;;;;;17.43;74.02;101709.91;5021681;28;20114;-80
2022/10/26 07:27:20;;;;;;;33.05;16.10;;;;;;;18.25;74.28;101827.91;4983357;28;20518;-81
2022/10/26 07:29:47;;;;;;;34.45;15.25;;;;;;;18.24;75.00;101832.44;4991585;28;20654;-80
2022/10/26 07:32:14;;;;;;;43.33;17.73;;;;;;;18.30;74.26;101842.59;5001308;28;20055;-81
2022/10/26 07:34:41;;;;;;;35.97;17.85;;;;;;;18.07;74.38;101793.88;4998688;28;20045;-81
2022/10/26 07:37:09;;;;;;;31.90;16.88;;;;;;;18.01;74.10;101772.16;5019965;28;20473;-80
2022/10/26 07:39:36;;;;;;;36.80;16.75;;;;;;;17.75;73.91;101734.50;5001327;28;20215;-81
2022/10/26 07:42:08;;;;;;;;;;;;;;;18.50;74.06;101863.91;5020167;28;20053;-80
2022/10/26 07:44:35;;;;;;;36.30;16.60;;;;;;;17.61;73.70;101711.72;5001330;28;20730;-80
2022/10/26 07:47:02;;;;;;;34.42;16.15;;;;;;;18.53;73.11;101850.97;5006689;28;20548;-81
2022/10/26 07:49:29;;;;;;;28.73;14.10;;;;;;;18.46;73.14;101843.69;5013232;28;20785;-80
2022/10/26 07:51:56;;;;;;;29.65;14.57;;;;;;;18.58;72.86;101864.78;5002592;28;20416;-81
2022/10/26 07:54:23;;;;;;;39.60;14.95;;;;;;;18.60;72.74;101861.94;5024023;28;20060;-80
2022/10/26 07:56:50;;;;;;;25.83;13.68;;;;;;;18.62;72.64;101867.13;5005806;28;20470;-79
2022/10/26 07:59:17;;;;;;;35.38;14.60;;;;;;;18.24;72.72;101797.50;5008164;28;20218;-80
2022/10/26 08:01:46;;;;;;;30.13;13.63;;;;;;;18.79;72.21;101866.28;5005551;28;20425;-82
2022/10/26 08:04:13;;;;;;;28.40;13.43;;;;;;;18.88;72.14;101877.91;4999045;28;20402;-83
2022/10/26 08:06:40;;;;;;;32.35;14.30;;;;;;;18.89;72.41;101880.47;5006908;28;20491;-82
2022/10/26 08:09:07;;;;;;;32.22;14.63;;;;;;;19.03;71.77;101888.94;5007157;28;20126;-79
2022/10/26 08:11:35;;;;;;;33.22;15.65;;;;;;;18.84;70.90;101860.44;5022402;28;20498;-82
2022/10/26 08:14:03;;;;;;;32.13;16.33;;;;;;;19.03;70.89;101883.53;5005142;28;20336;-81
2022/10/26 08:16:30;;;;;;;35.28;14.85;;;;;;;18.86;70.93;101867.34;5023192;28;20045;-81
2022/10/26 08:18:57;;;;;;;33.42;15.95;;;;;;;18.85;71.54;101867.50;5004365;28;20663;-81
2022/10/26 08:21:24;;;;;;;44.35;16.90;;;;;;;19.07;71.03;101871.47;5005988;28;20068;-81
2022/10/26 08:24:05;;;;;;;39.75;19.20;;;;;;;19.01;71.13;101856.81;5008399;28;20422;-81
2022/10/26 08:26:32;;;;;;;32.67;18.63;;;;;;;18.82;71.06;101812.16;5003358;28;20282;-81
2022/10/26 08:28:58;;;;;;;40.65;20.90;;;;;;;19.35;70.74;101881.00;5018694;28;20800;-79
2022/10/26 08:31:25;;;;;;;38.42;19.98;;;;;;;19.19;70.59;101848.63;5003428;28;20133;-81
2022/10/26 08:33:55;;;;;;;45.30;21.85;;;;;;;19.38;70.75;101875.28;5005531;28;20358;-80
2022/10/26 08:36:23;;;;;;;38.83;22.75;;;;;;;19.51;70.88;101879.34;5002713;28;20175;-80
2022/10/26 08:38:51;;;;;;;46.38;24.25;;;;;;;19.65;70.17;101876.88;5006825;28;20049;-81
2022/10/26 08:41:46;;;;;;;45.45;25.25;;;;;;;19.55;69.85;101843.84;4987780;28;20068;-81
2022/10/26 08:44:57;;;;;;;53.70;27.00;;;;;;;19.53;69.23;101828.88;5004335;28;20059;-79
2022/10/26 08:47:36;;;;;;;47.05;23.73;;;;;;;19.87;69.31;101879.97;5002952;28;20386;-81
2022/10/26 08:50:24;;;;;;;49.15;26.90;;;;;;;19.81;69.23;101849.16;5019411;28;20155;-81
2022/10/26 08:53:38;;;;;;;49.20;26.58;;;;;;;20.11;68.60;101870.22;5021227;28;20940;-80
2022/10/26 08:56:08;;;;;;;45.30;23.92;;;;;;;20.20;68.69;101867.34;5002691;28;20049;-79
2022/10/26 08:58:44;;;;;;;58.28;27.08;;;;;;;19.33;68.59;101710.69;5002531;28;20049;-81
2022/10/26 09:01:11;;;;;;;53.30;29.13;;;;;;;20.42;68.13;101867.69;5002509;28;20068;-81
2022/10/26 09:03:40;;;;;;;46.35;26.65;;;;;;;20.50;68.05;101867.66;4999584;28;20166;-81
2022/10/26 09:06:26;;;;;;;54.60;29.40;;;;;;;20.46;67.08;101839.34;5000545;28;20054;-81
2022/10/26 09:09:32;;;;;;;52.08;28.05;;;;;;;20.77;67.56;101871.00;5000385;28;20049;-80
2022/10/26 09:12:26;;;;;;;55.78;28.42;;;;;;;20.34;67.07;101762.50;4950686;28;20422;-81
2022/10/26 09:15:41;;;;;;;48.10;27.17;;;;;;;21.12;66.21;101880.53;5004409;28;20049;-77
2022/10/26 09:18:25;;;;;;;56.47;29.25;;;;;;;21.15;65.77;101852.31;4992263;28;20060;-80
2022/10/26 09:21:00;;;;;;;58.70;26.10;;;;;;;21.25;66.10;101874.56;4975524;28;20555;-81
2022/10/26 09:23:40;;;;;;;50.90;26.95;;;;;;;21.27;65.34;101851.75;4979836;28;20050;-80
2022/10/26 09:26:14;;;;;;;54.88;26.67;;;;;;;21.11;64.59;101804.06;4994825;28;20152;-80
2022/10/26 09:28:45;;;;;;;53.28;29.15;;;;;;;21.63;64.42;101882.84;4994789;28;20069;-80
2022/10/26 09:31:15;;;;;;;45.20;26.13;;;;;;;21.72;64.43;101879.03;4975951;28;20380;-80
2022/10/26 09:33:42;;;;;;;54.22;25.92;;;;;;;21.71;63.98;101871.97;4979972;28;20053;-80
2022/10/26 09:36:16;;;;;;;43.45;24.70;;;;;;;21.51;64.30;101817.56;4984689;28;20055;-82
2022/10/26 09:39:03;;;;;;;47.70;25.17;;;;;;;22.04;63.56;101888.78;5006177;28;20057;-80
2022/10/26 09:42:04;;;;;;;45.70;25.92;;;;;;;21.67;62.16;101803.91;5007360;28;20056;-83
2022/10/26 09:44:57;;;;;;;43.22;22.90;;;;;;;22.19;62.17;101884.25;5012079;28;20273;-80
2022/10/26 09:47:41;;;;;;;54.97;23.70;;;;;;;22.37;62.02;101894.78;5018461;28;20298;-86
2022/10/26 09:50:11;;;;;;;51.03;23.63;;;;;;;21.63;61.55;101750.44;5021421;28;20077;-81
2022/10/26 09:52:37;;;;;;;45.53;23.35;;;;;;;22.38;61.28;101857.78;5011678;28;20365;-81
2022/10/26 09:55:05;;;;;;;36.72;21.52;;;;;;;22.36;60.73;101835.47;5006386;28;20379;-82
2022/10/26 09:57:34;;;;;;;42.90;19.90;;;;;;;22.70;59.76;101880.94;5003306;28;20278;-81
2022/10/26 10:00:03;;;;;;;41.75;21.08;;;;;;;22.89;60.04;101889.53;5000423;28;20060;-81
2022/10/26 10:02:39;;;;;;;32.77;20.03;;;;;;;23.03;59.73;101895.00;5000438;28;20057;-82
2022/10/26 10:05:34;;;;;;;45.03;20.17;;;;;;;23.18;58.48;101894.97;5001951;28;20469;-82
2022/10/26 10:08:25;;;;;;;32.75;19.35;;;;;;;23.09;58.08;101855.47;4984921;28;20046;-80
2022/10/26 10:11:07;;;;;;;36.97;18.98;;;;;;;23.36;57.49;101891.03;4988967;28;20151;-81
2022/10/26 10:13:45;;;;;;;30.88;18.13;;;;;;;23.64;57.14;101905.53;4982246;28;20053;-81
2022/10/26 10:16:23;;;;;;;38.97;19.35;;;;;;;23.66;56.19;101913.47;5001590;28;20898;-80
2022/10/26 10:19:00;;;;;;;36.47;18.55;;;;;;;23.76;56.26;101907.75;5003907;28;20169;-83
2022/10/26 10:21:39;;;;;;;38.85;16.42;;;;;;;23.77;55.56;101901.31;5021167;28;20508;-80
2022/10/26 10:24:27;;;;;;;39.42;16.80;;;;;;;23.93;55.39;101914.63;5002937;28;20430;-82
2022/10/26 10:27:00;;;;;;;36.95;16.10;;;;;;;23.65;55.99;101844.84;5001974;28;20049;-81
2022/10/26 10:29:30;;;;;;;43.65;19.20;;;;;;;24.00;55.69;101872.13;5002354;28;20123;-81
2022/10/26 10:32:01;;;;;;;38.42;17.40;;;;;;;24.35;54.82;101914.81;5014597;28;20064;-80
2022/10/26 10:34:32;;;;;;;43.63;17.70;;;;;;;24.30;54.93;101877.41;5018635;28;20044;-78
2022/10/26 10:37:00;;;;;;;38.42;15.95;;;;;;;24.68;54.45;101906.94;5002145;28;20613;-79
2022/10/26 10:39:39;;;;;;;40.55;15.32;;;;;;;24.62;53.63;101865.13;5001868;28;20256;-82
2022/10/26 10:42:16;;;;;;;33.08;14.88;;;;;;;24.28;52.71;101770.94;5001217;28;20581;-81
2022/10/26 10:44:53;;;;;;;37.50;16.48;;;;;;;24.31;52.60;101743.41;5000731;28;20518;-81
2022/10/26 10:47:29;;;;;;;34.08;15.52;;;;;;;24.96;52.05;101849.88;5005004;28;20079;-82
2022/10/26 10:49:56;;;;;;;31.27;13.93;;;;;;;24.91;52.43;101839.63;5015386;28;20538;-81
2022/10/26 10:52:29;;;;;;;38.92;14.13;;;;;;;24.89;51.56;101830.81;5019904;28;20194;-81
2022/10/26 10:55:14;;;;;;;30.48;14.45;;;;;;;25.16;51.81;101898.88;5002088;28;20045;-80
2022/10/26 10:58:11;;;;;;;32.42;14.43;;;;;;;24.38;52.25;101809.41;5005524;28;20257;-81
2022/10/26 11:00:42;;;;;;;26.98;15.23;;;;;;;23.69;53.03;101723.34;4983568;28;20046;-79
2022/10/26 11:03:32;;;;;;;32.67;14.63;;;;;;;24.33;52.99;101836.31;4999627;28;20065;-82
2022/10/26 11:06:01;;;;;;;27.52;14.35;;;;;;;24.49;53.27;101882.19;5006837;28;20053;-83
2022/10/26 11:08:34;;;;;;;30.30;13.40;;;;;;;24.38;53.71;101879.97;5002031;28;20053;-80
2022/10/26 11:11:39;;;;;;;23.60;13.88;;;;;;;23.46;53.47;101750.63;5001915;28;20057;-81
2022/10/26 11:14:18;;;;;;;28.50;13.40;;;;;;;23.53;54.55;101781.34;5006767;28;20536;-82
2022/10/26 11:17:16;;;;;;;32.53;13.45;;;;;;;24.05;54.57;101874.25;5001787;28;20138;-81
2022/10/26 11:20:11;;;;;;;30.30;13.45;;;;;;;23.76;54.27;101837.28;5006767;28;20063;-80
2022/10/26 11:23:04;;;;;;;33.28;11.93;;;;;;;23.19;54.16;101744.13;5020279;28;20052;-80
2022/10/26 11:25:46;;;;;;;25.48;10.88;;;;;;;23.93;54.55;101864.97;4989213;28;20059;-80
2022/10/26 11:28:48;;;;;;;25.83;11.90;;;;;;;23.86;54.51;101867.59;5002921;28;20049;-83
2022/10/26 11:31:32;;;;;;;33.00;13.57;;;;;;;23.62;55.20;101826.28;4983836;28;20053;-81
2022/10/26 11:34:18;;;;;;;21.00;10.82;;;;;;;23.82;54.67;101852.78;4983548;28;20709;-82
2022/10/26 11:37:04;;;;;;;23.10;9.75;;;;;;;23.89;54.97;101853.69;4991120;28;20350;-81
2022/10/26 11:39:37;;;;;;;23.52;10.05;;;;;;;23.85;55.33;101855.94;5021583;28;20150;-82